createdAt,value
2018-07-09T00:00:27.086Z,14.50
2018-07-09T00:01:32.556Z,14.50
2018-07-09T00:02:37.998Z,14.50
2018-07-09T00:03:44.426Z,14.40
2018-07-09T00:04:49.889Z,14.30
2018-07-09T00:05:55.334Z,14.30
2018-07-09T00:07:00.757Z,14.30
2018-07-09T00:08:07.073Z,14.30
2018-07-09T00:09:12.461Z,14.20
2018-07-09T00:11:21.392Z,14.20
2018-07-09T00:12:26.830Z,14.10
2018-07-09T00:13:33.513Z,14.10
2018-07-09T00:14:38.968Z,14.10
2018-07-09T00:15:46.107Z,14.10
2018-07-09T00:16:51.542Z,14.10
2018-07-09T00:17:57.014Z,14.00
2018-07-09T00:19:02.938Z,14.00
2018-07-09T00:20:08.450Z,14.00
2018-07-09T00:21:13.985Z,14.00
2018-07-09T00:22:19.405Z,14.00
2018-07-09T00:23:24.949Z,14.00
2018-07-09T00:24:30.405Z,14.00
2018-07-09T00:25:36.257Z,13.90
2018-07-09T00:26:41.715Z,13.90
2018-07-09T00:27:51.169Z,13.90
2018-07-09T00:28:56.728Z,13.90
2018-07-09T00:30:03.440Z,13.90
2018-07-09T00:31:10.045Z,13.90
2018-07-09T00:32:16.557Z,13.90
2018-07-09T00:33:22.953Z,13.90
2018-07-09T00:34:28.430Z,13.80
2018-07-09T00:35:33.910Z,13.80
2018-07-09T00:36:39.401Z,13.80
2018-07-09T00:37:44.893Z,13.80
2018-07-09T00:38:50.494Z,13.80
2018-07-09T00:39:56.193Z,13.80
2018-07-09T00:41:01.670Z,13.80
2018-07-09T00:42:07.974Z,13.80
2018-07-09T00:43:13.433Z,13.80
2018-07-09T00:44:18.928Z,13.70
2018-07-09T00:45:24.470Z,13.70
2018-07-09T00:46:30.548Z,13.80
2018-07-09T00:47:37.130Z,13.70
2018-07-09T00:48:42.570Z,13.70
2018-07-09T00:49:50.767Z,13.70
2018-07-09T00:50:56.976Z,13.70
2018-07-09T00:52:02.497Z,13.70
2018-07-09T00:53:07.985Z,13.70
2018-07-09T00:54:13.733Z,13.70
2018-07-09T00:55:19.290Z,13.80
2018-07-09T00:56:24.962Z,13.70
2018-07-09T00:57:30.993Z,13.80
2018-07-09T00:58:36.455Z,13.70
2018-07-09T00:59:42.605Z,13.70
2018-07-09T01:00:48.570Z,13.70
2018-07-09T01:01:54.091Z,13.70
2018-07-09T01:02:59.550Z,13.70
2018-07-09T01:04:05.022Z,13.70
2018-07-09T01:05:10.476Z,13.60
2018-07-09T01:06:18.247Z,13.60
2018-07-09T01:07:23.698Z,13.60
2018-07-09T01:08:29.562Z,13.50
2018-07-09T01:09:35.022Z,13.60
2018-07-09T01:10:58.051Z,13.50
2018-07-09T01:12:12.994Z,13.40
2018-07-09T01:13:24.813Z,13.50
2018-07-09T01:14:30.301Z,13.50
2018-07-09T01:15:35.766Z,13.40
2018-07-09T01:16:41.629Z,13.40
2018-07-09T01:18:52.829Z,13.40
2018-07-09T01:19:59.012Z,13.50
2018-07-09T01:21:04.822Z,13.40
2018-07-09T01:23:16.408Z,13.40
2018-07-09T01:24:21.945Z,13.40
2018-07-09T01:25:27.573Z,13.40
2018-07-09T01:26:34.441Z,13.40
2018-07-09T01:27:39.958Z,13.40
2018-07-09T01:28:47.219Z,13.40
2018-07-09T01:29:53.162Z,13.40
2018-07-09T01:31:00.082Z,13.40
2018-07-09T01:32:05.541Z,13.40
2018-07-09T01:33:11.013Z,13.40
2018-07-09T01:34:16.451Z,13.40
2018-07-09T01:36:26.989Z,13.40
2018-07-09T01:37:32.430Z,13.40
2018-07-09T01:38:37.857Z,13.40
2018-07-09T01:39:43.300Z,13.30
2018-07-09T01:40:48.709Z,13.30
2018-07-09T01:41:54.882Z,13.30
2018-07-09T01:43:00.293Z,13.30
2018-07-09T01:44:05.729Z,13.30
2018-07-09T01:46:16.816Z,13.30
2018-07-09T01:47:22.333Z,13.30
2018-07-09T01:48:27.873Z,13.30
2018-07-09T01:49:33.466Z,13.20
2018-07-09T01:50:40.414Z,13.20
2018-07-09T01:51:45.834Z,13.20
2018-07-09T01:52:51.244Z,13.10
2018-07-09T01:53:56.774Z,13.10
2018-07-09T01:55:02.456Z,13.00
2018-07-09T01:56:07.873Z,13.10
2018-07-09T01:57:13.359Z,13.00
2018-07-09T01:58:19.218Z,13.00
2018-07-09T01:59:25.313Z,13.00
2018-07-09T02:00:30.791Z,13.00
2018-07-09T02:01:36.258Z,13.00
2018-07-09T02:02:41.865Z,13.00
2018-07-09T02:03:47.569Z,13.00
2018-07-09T02:04:53.711Z,13.00
2018-07-09T02:05:59.211Z,13.00
2018-07-09T02:07:04.691Z,13.00
2018-07-09T02:08:10.188Z,13.00
2018-07-09T02:09:15.694Z,13.00
2018-07-09T02:10:21.121Z,13.00
2018-07-09T02:11:27.199Z,13.00
2018-07-09T02:12:32.605Z,12.90
2018-07-09T02:13:38.601Z,12.90
2018-07-09T02:14:44.424Z,12.90
2018-07-09T02:15:49.911Z,12.90
2018-07-09T02:16:55.899Z,13.00
2018-07-09T02:18:01.406Z,13.00
2018-07-09T02:19:06.894Z,12.90
2018-07-09T02:20:12.290Z,12.90
2018-07-09T02:21:17.753Z,12.90
2018-07-09T02:22:23.630Z,12.90
2018-07-09T02:23:29.044Z,12.80
2018-07-09T02:24:34.507Z,12.80
2018-07-09T02:25:39.912Z,12.80
2018-07-09T02:26:45.362Z,12.80
2018-07-09T02:27:50.783Z,12.80
2018-07-09T02:28:56.760Z,12.80
2018-07-09T02:30:02.262Z,12.80
2018-07-09T02:31:07.778Z,12.90
2018-07-09T02:32:13.213Z,12.80
2018-07-09T02:33:18.694Z,12.80
2018-07-09T02:34:24.284Z,12.80
2018-07-09T02:35:30.785Z,12.80
2018-07-09T02:36:36.234Z,12.90
2018-07-09T02:37:42.770Z,12.80
2018-07-09T02:38:48.227Z,12.80
2018-07-09T02:39:53.650Z,12.80
2018-07-09T02:40:59.230Z,12.70
2018-07-09T02:42:04.687Z,12.70
2018-07-09T02:43:10.169Z,12.70
2018-07-09T02:44:15.614Z,12.70
2018-07-09T02:45:21.218Z,12.60
2018-07-09T02:46:27.053Z,12.70
2018-07-09T02:47:32.550Z,12.60
2018-07-09T02:48:37.982Z,12.70
2018-07-09T02:49:43.552Z,12.60
2018-07-09T02:50:49.019Z,12.60
2018-07-09T02:51:54.494Z,12.60
2018-07-09T02:53:01.127Z,12.60
2018-07-09T02:54:06.731Z,12.60
2018-07-09T02:55:12.168Z,12.60
2018-07-09T02:56:17.589Z,12.60
2018-07-09T02:57:23.767Z,12.60
2018-07-09T02:58:29.218Z,12.60
2018-07-09T02:59:34.648Z,12.60
2018-07-09T03:00:40.210Z,12.60
2018-07-09T03:01:46.211Z,12.60
2018-07-09T03:02:51.669Z,12.60
2018-07-09T03:03:57.606Z,12.60
2018-07-09T03:05:03.092Z,12.60
2018-07-09T03:07:13.881Z,12.60
2018-07-09T03:08:19.395Z,12.60
2018-07-09T03:09:24.853Z,12.60
2018-07-09T03:10:30.836Z,12.60
2018-07-09T03:11:36.533Z,12.60
2018-07-09T03:12:42.125Z,12.60
2018-07-09T03:13:47.591Z,12.60
2018-07-09T03:14:53.581Z,12.60
2018-07-09T03:15:59.071Z,12.60
2018-07-09T03:17:04.538Z,12.60
2018-07-09T03:18:09.958Z,12.50
2018-07-09T03:19:15.483Z,12.50
2018-07-09T03:20:21.031Z,12.50
2018-07-09T03:21:26.473Z,12.50
2018-07-09T03:22:31.889Z,12.50
2018-07-09T03:23:37.483Z,12.50
2018-07-09T03:24:44.600Z,12.50
2018-07-09T03:25:50.168Z,12.50
2018-07-09T03:26:55.600Z,12.60
2018-07-09T03:28:01.013Z,12.60
2018-07-09T03:29:06.539Z,12.60
2018-07-09T03:30:11.957Z,12.60
2018-07-09T03:31:17.587Z,12.60
2018-07-09T03:32:23.023Z,12.60
2018-07-09T03:33:28.417Z,12.60
2018-07-09T03:34:34.017Z,12.60
2018-07-09T03:35:39.534Z,12.60
2018-07-09T03:36:46.131Z,12.60
2018-07-09T03:37:51.793Z,12.60
2018-07-09T03:38:58.038Z,12.60
2018-07-09T03:40:05.116Z,12.60
2018-07-09T03:41:10.650Z,12.60
2018-07-09T03:42:16.093Z,12.60
2018-07-09T03:43:21.528Z,12.70
2018-07-09T03:44:27.377Z,12.70
2018-07-09T03:45:33.150Z,12.70
2018-07-09T03:46:38.569Z,12.70
2018-07-09T03:47:44.047Z,12.70
2018-07-09T03:48:49.462Z,12.70
2018-07-09T03:50:00.174Z,12.80
2018-07-09T03:51:05.662Z,12.80
2018-07-09T03:52:11.108Z,12.80
2018-07-09T03:53:16.649Z,12.90
2018-07-09T03:54:22.499Z,12.90
2018-07-09T03:55:28.009Z,12.90
2018-07-09T03:56:33.449Z,12.90
2018-07-09T03:57:38.917Z,12.90
2018-07-09T03:58:44.345Z,13.00
2018-07-09T03:59:49.909Z,13.10
2018-07-09T04:00:55.444Z,13.10
2018-07-09T04:02:00.890Z,13.10
2018-07-09T04:04:11.734Z,13.20
2018-07-09T04:05:17.169Z,13.20
2018-07-09T04:06:22.638Z,13.20
2018-07-09T04:07:28.194Z,13.20
2018-07-09T04:08:33.606Z,13.20
2018-07-09T04:09:39.121Z,13.20
2018-07-09T04:10:44.537Z,13.30
2018-07-09T04:11:50.062Z,13.30
2018-07-09T04:12:56.779Z,13.40
2018-07-09T04:14:02.264Z,13.40
2018-07-09T04:15:07.785Z,13.40
2018-07-09T04:16:13.217Z,13.40
2018-07-09T04:17:18.676Z,13.40
2018-07-09T04:18:25.162Z,13.40
2018-07-09T04:19:30.694Z,13.40
2018-07-09T04:20:36.101Z,13.50
2018-07-09T04:22:46.890Z,13.50
2018-07-09T04:23:52.330Z,13.60
2018-07-09T04:24:57.771Z,13.70
2018-07-09T04:26:03.655Z,13.70
2018-07-09T04:27:09.101Z,13.80
2018-07-09T04:28:14.509Z,13.90
2018-07-09T04:29:19.953Z,13.90
2018-07-09T04:30:25.379Z,14.00
2018-07-09T04:31:30.791Z,14.00
2018-07-09T04:32:37.550Z,14.00
2018-07-09T04:33:42.990Z,14.00
2018-07-09T04:34:48.425Z,14.10
2018-07-09T04:35:53.890Z,14.10
2018-07-09T04:36:59.332Z,14.10
2018-07-09T04:38:04.829Z,14.20
2018-07-09T04:39:10.741Z,14.20
2018-07-09T04:40:16.273Z,14.30
2018-07-09T04:41:21.719Z,14.40
2018-07-09T04:42:27.146Z,14.40
2018-07-09T04:43:32.949Z,14.50
2018-07-09T04:44:38.371Z,14.60
2018-07-09T04:45:43.900Z,14.80
2018-07-09T04:46:49.409Z,15.10
2018-07-09T04:47:55.172Z,15.40
2018-07-09T04:49:01.130Z,16.10
2018-07-09T04:50:07.023Z,16.70
2018-07-09T04:51:12.529Z,17.50
2018-07-09T04:52:18.010Z,18.20
2018-07-09T04:53:23.868Z,18.70
2018-07-09T04:54:29.337Z,19.20
2018-07-09T04:55:35.341Z,19.50
2018-07-09T04:56:40.904Z,20.00
2018-07-09T04:57:46.371Z,20.20
2018-07-09T04:58:52.619Z,20.50
2018-07-09T04:59:58.026Z,20.60
2018-07-09T05:01:03.511Z,20.30
2018-07-09T05:02:08.977Z,19.90
2018-07-09T05:03:14.646Z,19.60
2018-07-09T05:04:20.087Z,19.20
2018-07-09T05:05:25.827Z,18.80
2018-07-09T05:06:31.276Z,18.40
2018-07-09T05:07:36.943Z,17.90
2018-07-09T05:08:42.409Z,17.70
2018-07-09T05:09:47.864Z,17.50
2018-07-09T05:10:53.277Z,17.40
2018-07-09T05:11:58.742Z,17.30
2018-07-09T05:13:04.213Z,17.20
2018-07-09T05:14:09.941Z,17.20
2018-07-09T05:15:15.832Z,17.00
2018-07-09T05:16:21.262Z,16.90
2018-07-09T05:17:27.039Z,16.90
2018-07-09T05:18:32.455Z,16.90
2018-07-09T05:19:37.898Z,16.90
2018-07-09T05:20:43.318Z,17.00
2018-07-09T05:21:48.801Z,17.00
2018-07-09T05:22:54.234Z,17.00
2018-07-09T05:23:59.670Z,17.00
2018-07-09T05:25:05.196Z,17.00
2018-07-09T05:26:10.840Z,17.10
2018-07-09T05:27:16.346Z,17.20
2018-07-09T05:28:22.821Z,17.30
2018-07-09T05:29:28.301Z,17.40
2018-07-09T05:30:33.866Z,17.40
2018-07-09T05:31:39.358Z,17.40
2018-07-09T05:32:44.851Z,17.40
2018-07-09T05:33:50.448Z,17.40
2018-07-09T05:34:56.226Z,17.40
2018-07-09T05:36:01.747Z,17.50
2018-07-09T05:37:07.273Z,17.60
2018-07-09T05:38:12.736Z,17.70
2018-07-09T05:39:18.395Z,17.70
2018-07-09T05:40:23.990Z,17.80
2018-07-09T05:41:29.515Z,17.90
2018-07-09T05:42:35.077Z,17.80
2018-07-09T05:43:40.538Z,17.70
2018-07-09T05:44:46.718Z,17.70
2018-07-09T05:45:52.202Z,17.70
2018-07-09T05:46:57.821Z,17.70
2018-07-09T05:48:03.373Z,17.70
2018-07-09T05:49:09.578Z,17.70
2018-07-09T05:50:15.150Z,17.70
2018-07-09T05:51:22.206Z,17.60
2018-07-09T05:52:27.900Z,17.50
2018-07-09T05:54:38.449Z,17.50
2018-07-09T05:55:43.914Z,17.50
2018-07-09T05:56:50.026Z,17.50
2018-07-09T05:57:55.470Z,17.60
2018-07-09T05:59:00.988Z,17.50
2018-07-09T06:00:06.498Z,17.50
2018-07-09T06:01:11.977Z,17.50
2018-07-09T06:02:17.437Z,17.70
2018-07-09T06:03:22.878Z,17.60
2018-07-09T06:04:28.360Z,17.60
2018-07-09T06:05:33.958Z,17.60
2018-07-09T06:06:39.319Z,17.70
2018-07-09T06:07:44.777Z,17.80
2018-07-09T06:08:50.223Z,17.80
2018-07-09T06:09:55.718Z,17.90
2018-07-09T06:11:01.163Z,17.90
2018-07-09T06:12:06.926Z,17.90
2018-07-09T06:13:12.551Z,18.00
2018-07-09T06:14:18.009Z,18.00
2018-07-09T06:15:23.445Z,18.00
2018-07-09T06:16:28.929Z,18.10
2018-07-09T06:17:34.368Z,18.10
2018-07-09T06:18:39.860Z,18.10
2018-07-09T06:19:45.329Z,18.20
2018-07-09T06:20:50.794Z,18.10
2018-07-09T06:21:56.222Z,18.20
2018-07-09T06:23:01.674Z,18.10
2018-07-09T06:24:07.345Z,18.30
2018-07-09T06:25:12.850Z,18.20
2018-07-09T06:26:18.339Z,18.20
2018-07-09T06:27:23.744Z,18.30
2018-07-09T06:28:29.362Z,18.30
2018-07-09T06:29:34.829Z,18.40
2018-07-09T06:30:40.294Z,18.40
2018-07-09T06:31:45.737Z,18.50
2018-07-09T06:32:51.227Z,18.50
2018-07-09T06:33:56.757Z,18.60
2018-07-09T06:35:02.262Z,18.60
2018-07-09T06:36:07.850Z,18.80
2018-07-09T06:37:13.352Z,18.80
2018-07-09T06:38:18.796Z,18.80
2018-07-09T06:39:24.521Z,18.90
2018-07-09T06:40:29.929Z,19.00
2018-07-09T06:41:35.407Z,19.10
2018-07-09T06:42:40.869Z,19.10
2018-07-09T06:43:46.315Z,19.10
2018-07-09T06:44:52.242Z,19.30
2018-07-09T06:45:57.683Z,19.60
2018-07-09T06:47:03.107Z,19.70
2018-07-09T06:48:08.886Z,19.60
2018-07-09T06:49:14.378Z,19.70
2018-07-09T06:50:19.894Z,19.90
2018-07-09T06:51:25.366Z,20.10
2018-07-09T06:52:30.819Z,20.20
2018-07-09T06:53:36.259Z,20.30
2018-07-09T06:54:41.698Z,20.30
2018-07-09T06:55:47.184Z,20.20
2018-07-09T06:56:53.157Z,20.20
2018-07-09T06:57:58.612Z,20.30
2018-07-09T06:59:04.118Z,20.20
2018-07-09T07:00:09.614Z,20.20
2018-07-09T07:01:15.102Z,20.10
2018-07-09T07:02:20.623Z,20.00
2018-07-09T07:03:26.129Z,20.00
2018-07-09T07:04:31.575Z,19.90
2018-07-09T07:05:37.041Z,19.90
2018-07-09T07:06:42.493Z,19.90
2018-07-09T07:07:48.036Z,19.90
2018-07-09T07:08:53.509Z,19.80
2018-07-09T07:09:59.003Z,19.80
2018-07-09T07:11:04.558Z,19.90
2018-07-09T07:12:10.935Z,19.90
2018-07-09T07:13:16.405Z,20.00
2018-07-09T07:14:21.874Z,19.90
2018-07-09T07:15:27.338Z,19.80
2018-07-09T07:16:33.261Z,19.80
2018-07-09T07:17:38.810Z,20.00
2018-07-09T07:18:44.262Z,20.20
2018-07-09T07:19:49.713Z,20.30
2018-07-09T07:20:55.205Z,20.30
2018-07-09T07:22:00.631Z,20.30
2018-07-09T07:23:06.121Z,20.20
2018-07-09T07:24:11.622Z,20.20
2018-07-09T07:25:17.046Z,20.20
2018-07-09T07:26:22.565Z,20.20
2018-07-09T07:27:28.005Z,20.30
2018-07-09T07:28:33.458Z,20.30
2018-07-09T07:29:38.910Z,20.20
2018-07-09T07:30:44.437Z,20.30
2018-07-09T07:31:49.938Z,20.40
2018-07-09T07:32:55.433Z,20.50
2018-07-09T07:34:00.935Z,20.50
2018-07-09T07:35:06.394Z,20.60
2018-07-09T07:36:12.031Z,20.60
2018-07-09T07:37:17.514Z,20.70
2018-07-09T07:38:22.982Z,20.80
2018-07-09T07:39:28.778Z,20.80
2018-07-09T07:40:34.197Z,20.60
2018-07-09T07:41:39.636Z,20.50
2018-07-09T07:42:45.115Z,20.50
2018-07-09T07:43:50.573Z,20.50
2018-07-09T07:44:56.230Z,20.40
2018-07-09T07:46:01.758Z,20.40
2018-07-09T07:47:07.453Z,20.40
2018-07-09T07:48:12.944Z,20.30
2018-07-09T07:49:18.382Z,20.30
2018-07-09T07:50:24.052Z,20.40
2018-07-09T07:51:29.437Z,20.50
2018-07-09T07:52:34.850Z,20.70
2018-07-09T07:53:40.382Z,20.80
2018-07-09T07:54:45.854Z,20.80
2018-07-09T07:55:51.341Z,20.90
2018-07-09T07:56:56.820Z,21.00
2018-07-09T07:58:02.355Z,21.10
2018-07-09T07:59:07.970Z,21.20
2018-07-09T08:00:13.457Z,21.10
2018-07-09T08:01:18.948Z,21.00
2018-07-09T08:02:24.394Z,21.10
2018-07-09T08:03:29.842Z,21.30
2018-07-09T08:04:35.290Z,21.30
2018-07-09T08:05:40.864Z,21.40
2018-07-09T08:06:46.299Z,21.40
2018-07-09T08:07:51.771Z,21.40
2018-07-09T08:08:57.237Z,21.30
2018-07-09T08:10:02.681Z,21.30
2018-07-09T08:11:11.074Z,21.20
2018-07-09T08:13:00.561Z,21.20
2018-07-09T08:13:29.007Z,21.10
2018-07-09T08:14:24.804Z,21.10
2018-07-09T08:15:30.296Z,21.00
2018-07-09T08:16:35.908Z,21.00
2018-07-09T08:17:42.218Z,20.70
2018-07-09T08:18:47.713Z,20.70
2018-07-09T08:19:53.230Z,20.70
2018-07-09T08:20:58.733Z,20.70
2018-07-09T08:22:04.299Z,20.80
2018-07-09T08:23:09.717Z,20.80
2018-07-09T08:24:15.659Z,20.90
2018-07-09T08:25:21.216Z,20.80
2018-07-09T08:26:26.690Z,20.70
2018-07-09T08:27:32.158Z,20.80
2018-07-09T08:28:37.657Z,20.70
2018-07-09T08:29:43.091Z,20.60
2018-07-09T08:30:49.094Z,20.60
2018-07-09T08:31:54.576Z,20.60
2018-07-09T08:33:00.068Z,20.60
2018-07-09T08:34:05.631Z,20.50
2018-07-09T08:35:11.802Z,20.50
2018-07-09T08:36:17.714Z,20.50
2018-07-09T08:37:23.259Z,20.50
2018-07-09T08:38:28.722Z,20.50
2018-07-09T08:39:34.210Z,20.70
2018-07-09T08:40:39.826Z,20.90
2018-07-09T08:41:45.941Z,21.10
2018-07-09T08:42:51.416Z,21.30
2018-07-09T08:43:56.893Z,21.50
2018-07-09T08:45:02.389Z,21.60
2018-07-09T08:46:07.910Z,21.70
2018-07-09T08:47:14.144Z,21.70
2018-07-09T08:48:19.638Z,21.70
2018-07-09T08:49:25.151Z,21.70
2018-07-09T08:50:30.631Z,21.70
2018-07-09T08:51:36.193Z,21.80
2018-07-09T08:52:41.637Z,21.80
2018-07-09T08:53:47.105Z,21.90
2018-07-09T08:54:52.553Z,21.90
2018-07-09T08:55:58.004Z,21.90
2018-07-09T08:57:03.665Z,21.80
2018-07-09T08:58:09.110Z,21.70
2018-07-09T08:59:14.561Z,21.80
2018-07-09T09:00:20.181Z,21.90
2018-07-09T09:01:25.682Z,22.00
2018-07-09T09:02:31.086Z,22.00
2018-07-09T09:04:41.550Z,22.20
2018-07-09T09:05:46.965Z,22.20
2018-07-09T09:06:52.910Z,22.20
2018-07-09T09:07:58.336Z,22.10
2018-07-09T09:09:06.852Z,22.00
2018-07-09T09:10:13.802Z,22.00
2018-07-09T09:11:19.172Z,21.90
2018-07-09T09:12:25.077Z,21.90
2018-07-09T09:13:30.553Z,21.90
2018-07-09T09:14:35.973Z,22.00
2018-07-09T09:15:41.468Z,22.00
2018-07-09T09:16:46.925Z,22.20
2018-07-09T09:17:52.565Z,22.30
2018-07-09T09:18:58.007Z,22.30
2018-07-09T09:20:03.560Z,22.30
2018-07-09T09:21:09.322Z,22.10
2018-07-09T09:22:15.630Z,22.30
2018-07-09T09:23:21.397Z,22.20
2018-07-09T09:24:26.854Z,22.30
2018-07-09T09:25:32.369Z,22.30
2018-07-09T09:26:37.951Z,22.10
2018-07-09T09:27:43.469Z,22.20
2018-07-09T09:28:48.977Z,22.20
2018-07-09T09:29:55.569Z,22.20
2018-07-09T09:32:06.178Z,22.10
2018-07-09T09:33:11.629Z,22.30
2018-07-09T09:34:17.096Z,22.40
2018-07-09T09:35:22.744Z,22.50
2018-07-09T09:36:28.232Z,22.50
2018-07-09T09:37:33.749Z,22.50
2018-07-09T09:38:39.185Z,22.40
2018-07-09T09:39:44.631Z,22.40
2018-07-09T09:40:50.145Z,22.40
2018-07-09T09:41:55.599Z,22.30
2018-07-09T09:43:04.428Z,22.30
2018-07-09T09:45:15.073Z,22.30
2018-07-09T09:46:20.497Z,22.10
2018-07-09T09:47:26.078Z,22.10
2018-07-09T09:48:31.569Z,22.00
2018-07-09T09:49:37.049Z,21.90
2018-07-09T09:50:42.530Z,21.80
2018-07-09T09:51:50.256Z,21.70
2018-07-09T09:52:55.772Z,21.70
2018-07-09T09:54:01.194Z,21.90
2018-07-09T09:55:06.793Z,22.00
2018-07-09T09:56:12.226Z,22.10
2018-07-09T09:57:17.737Z,22.20
2018-07-09T09:58:23.188Z,22.40
2018-07-09T09:59:28.671Z,22.50
2018-07-09T10:00:39.360Z,22.50
2018-07-09T10:01:44.725Z,22.50
2018-07-09T10:02:50.150Z,22.50
2018-07-09T10:03:56.039Z,22.40
2018-07-09T10:05:01.459Z,22.50
2018-07-09T10:06:07.060Z,22.80
2018-07-09T10:07:12.470Z,23.10
2018-07-09T10:08:18.002Z,23.20
2018-07-09T10:09:23.775Z,23.30
2018-07-09T10:10:29.306Z,23.40
2018-07-09T10:11:35.111Z,23.60
2018-07-09T10:12:40.533Z,23.60
2018-07-09T10:13:46.094Z,23.60
2018-07-09T10:14:51.564Z,23.40
2018-07-09T10:15:57.207Z,23.40
2018-07-09T10:17:02.685Z,23.40
2018-07-09T10:18:08.132Z,23.50
2018-07-09T10:19:13.581Z,23.60
2018-07-09T10:20:19.029Z,23.60
2018-07-09T10:21:24.694Z,23.50
2018-07-09T10:22:30.286Z,23.30
2018-07-09T10:23:35.790Z,23.10
2018-07-09T10:24:41.202Z,22.90
2018-07-09T10:25:46.697Z,22.70
2018-07-09T10:26:52.147Z,22.50
2018-07-09T10:27:57.569Z,22.30
2018-07-09T10:29:03.037Z,22.20
2018-07-09T10:30:08.604Z,22.10
2018-07-09T10:31:14.063Z,22.00
2018-07-09T10:32:19.483Z,21.80
2018-07-09T10:33:24.968Z,21.90
2018-07-09T10:34:31.132Z,21.70
2018-07-09T10:35:36.660Z,21.70
2018-07-09T10:36:42.113Z,21.70
2018-07-09T10:37:47.579Z,21.60
2018-07-09T10:38:53.025Z,21.60
2018-07-09T10:39:58.618Z,21.60
2018-07-09T10:41:04.118Z,21.60
2018-07-09T10:42:09.573Z,21.70
2018-07-09T10:43:15.052Z,21.70
2018-07-09T10:44:20.477Z,21.80
2018-07-09T10:45:25.957Z,21.90
2018-07-09T10:46:31.427Z,21.90
2018-07-09T10:47:36.837Z,22.00
2018-07-09T10:49:47.523Z,22.20
2018-07-09T10:50:53.022Z,22.40
2018-07-09T10:51:58.457Z,22.60
2018-07-09T10:53:03.924Z,22.70
2018-07-09T10:54:09.642Z,22.90
2018-07-09T10:55:15.162Z,22.90
2018-07-09T10:56:20.705Z,22.90
2018-07-09T10:57:26.148Z,23.00
2018-07-09T10:58:31.591Z,23.20
2018-07-09T10:59:37.256Z,23.20
2018-07-09T11:00:42.780Z,23.30
2018-07-09T11:01:48.198Z,23.30
2018-07-09T11:02:53.707Z,23.20
2018-07-09T11:03:59.174Z,22.90
2018-07-09T11:05:05.059Z,22.70
2018-07-09T11:06:11.461Z,22.60
2018-07-09T11:08:22.009Z,22.60
2018-07-09T11:09:27.518Z,22.80
2018-07-09T11:10:33.482Z,22.90
2018-07-09T11:11:38.954Z,23.00
2018-07-09T11:12:44.385Z,23.20
2018-07-09T11:13:50.204Z,23.30
2018-07-09T11:14:55.766Z,23.40
2018-07-09T11:16:01.693Z,23.30
2018-07-09T11:17:07.701Z,23.30
2018-07-09T11:18:14.083Z,23.30
2018-07-09T11:19:19.509Z,23.50
2018-07-09T11:20:25.256Z,23.70
2018-07-09T11:21:31.268Z,23.90
2018-07-09T11:22:36.722Z,24.10
2018-07-09T11:23:42.365Z,24.10
2018-07-09T11:24:48.423Z,24.40
2018-07-09T11:25:53.825Z,24.50
2018-07-09T11:26:59.493Z,24.60
2018-07-09T11:28:05.052Z,24.60
2018-07-09T11:29:11.896Z,24.50
2018-07-09T11:30:17.332Z,24.30
2018-07-09T11:31:22.908Z,24.10
2018-07-09T11:32:28.713Z,24.10
2018-07-09T11:33:34.114Z,24.30
2018-07-09T11:34:39.595Z,24.50
2018-07-09T11:35:45.093Z,24.50
2018-07-09T11:36:50.561Z,24.50
2018-07-09T11:37:56.437Z,24.80
2018-07-09T11:39:01.892Z,24.80
2018-07-09T11:40:07.409Z,24.70
2018-07-09T11:41:12.877Z,24.90
2018-07-09T11:42:18.347Z,24.80
2018-07-09T11:43:23.923Z,24.70
2018-07-09T11:44:29.821Z,24.60
2018-07-09T11:45:35.330Z,24.50
2018-07-09T11:46:40.928Z,24.40
2018-07-09T11:47:46.448Z,24.10
2018-07-09T11:48:52.162Z,23.80
2018-07-09T11:49:57.617Z,23.80
2018-07-09T11:51:03.141Z,23.90
2018-07-09T11:52:08.650Z,23.90
2018-07-09T11:53:14.090Z,23.90
2018-07-09T11:54:19.602Z,23.90
2018-07-09T11:55:25.050Z,24.10
2018-07-09T11:56:30.478Z,23.80
2018-07-09T11:57:35.957Z,23.60
2018-07-09T11:58:41.446Z,23.60
2018-07-09T11:59:46.945Z,23.60
2018-07-09T12:00:52.644Z,23.60
2018-07-09T12:01:58.117Z,23.70
2018-07-09T12:03:03.516Z,23.80
2018-07-09T12:04:08.920Z,23.80
2018-07-09T12:05:14.390Z,23.50
2018-07-09T12:06:19.834Z,23.50
2018-07-09T12:07:25.322Z,23.60
2018-07-09T12:08:30.777Z,23.70
2018-07-09T12:09:36.238Z,23.90
2018-07-09T12:10:42.045Z,24.20
2018-07-09T12:11:47.473Z,24.40
2018-07-09T12:12:52.942Z,24.50
2018-07-09T12:13:58.367Z,24.50
2018-07-09T12:15:03.971Z,24.50
2018-07-09T12:16:09.514Z,24.60
2018-07-09T12:17:14.974Z,24.80
2018-07-09T12:18:20.376Z,24.80
2018-07-09T12:19:25.922Z,24.80
2018-07-09T12:20:31.581Z,24.80
2018-07-09T12:21:37.360Z,24.90
2018-07-09T12:22:42.762Z,25.00
2018-07-09T12:23:48.234Z,25.10
2018-07-09T12:24:53.654Z,25.30
2018-07-09T12:25:59.070Z,25.40
2018-07-09T12:27:26.439Z,25.40
2018-07-09T12:28:44.139Z,25.60
2018-07-09T12:29:49.822Z,25.90
2018-07-09T12:30:55.474Z,26.00
2018-07-09T12:32:01.109Z,25.80
2018-07-09T12:33:07.170Z,25.60
2018-07-09T12:34:12.912Z,25.50
2018-07-09T12:35:18.552Z,25.40
2018-07-09T12:36:24.482Z,25.30
2018-07-09T12:37:29.994Z,25.10
2018-07-09T12:38:35.633Z,25.00
2018-07-09T12:39:41.340Z,25.00
2018-07-09T12:40:46.994Z,24.80
2018-07-09T12:41:52.782Z,24.70
2018-07-09T12:42:58.358Z,24.50
2018-07-09T12:44:04.597Z,24.40
2018-07-09T12:45:10.167Z,24.30
2018-07-09T12:46:15.713Z,24.30
2018-07-09T12:47:21.375Z,24.40
2018-07-09T12:48:27.036Z,24.50
2018-07-09T12:49:32.774Z,24.50
2018-07-09T12:50:38.426Z,24.60
2018-07-09T12:51:43.949Z,24.60
2018-07-09T12:53:55.265Z,24.90
2018-07-09T12:55:00.793Z,25.00
2018-07-09T12:56:06.802Z,25.20
2018-07-09T12:57:12.518Z,25.20
2018-07-09T12:58:18.149Z,25.00
2018-07-09T12:59:23.695Z,25.00
2018-07-09T13:00:29.375Z,24.80
2018-07-09T13:01:35.080Z,24.80
2018-07-09T13:02:40.667Z,24.70
2018-07-09T13:03:46.567Z,24.60
2018-07-09T13:04:52.142Z,24.30
2018-07-09T13:05:57.834Z,24.10
2018-07-09T13:08:08.724Z,23.90
2018-07-09T13:09:14.835Z,23.80
2018-07-09T13:10:22.086Z,23.70
2018-07-09T13:11:27.862Z,23.60
2018-07-09T13:12:33.488Z,23.40
2018-07-09T13:13:39.192Z,23.40
2018-07-09T13:15:49.934Z,23.20
2018-07-09T13:16:55.458Z,23.20
2018-07-09T13:18:01.088Z,23.20
2018-07-09T13:19:07.347Z,23.10
2018-07-09T13:20:13.147Z,23.00
2018-07-09T13:21:18.706Z,22.90
2018-07-09T13:22:24.683Z,22.80
2018-07-09T13:23:30.311Z,22.60
2018-07-09T13:24:36.089Z,22.40
2018-07-09T13:25:42.157Z,22.20
2018-07-09T13:26:47.745Z,22.00
2018-07-09T13:27:53.425Z,22.00
2018-07-09T13:28:59.435Z,22.10
2018-07-09T13:30:05.322Z,22.10
2018-07-09T13:31:11.125Z,22.20
2018-07-09T13:32:16.993Z,22.30
2018-07-09T13:33:22.654Z,22.30
2018-07-09T13:34:28.585Z,22.30
2018-07-09T13:36:39.765Z,22.50
2018-07-09T13:37:45.586Z,22.60
2018-07-09T13:38:51.205Z,22.60
2018-07-09T13:39:57.260Z,22.60
2018-07-09T13:41:03.174Z,22.70
2018-07-09T13:42:08.818Z,22.60
2018-07-09T13:43:14.463Z,22.70
2018-07-09T13:44:20.066Z,22.70
2018-07-09T13:45:25.874Z,22.70
2018-07-09T13:46:31.500Z,22.70
2018-07-09T13:47:37.206Z,22.70
2018-07-09T13:48:43.067Z,22.80
2018-07-09T13:49:48.716Z,22.80
2018-07-09T13:50:54.350Z,23.00
2018-07-09T13:52:00.105Z,23.30
2018-07-09T13:53:05.773Z,23.30
2018-07-09T13:54:11.533Z,23.50
2018-07-09T13:55:17.165Z,23.70
2018-07-09T13:56:23.205Z,23.80
2018-07-09T13:57:29.157Z,23.90
2018-07-09T13:58:34.883Z,23.80
2018-07-09T13:59:40.580Z,24.00
2018-07-09T14:00:46.913Z,24.10
2018-07-09T14:02:57.769Z,24.20
2018-07-09T14:04:03.312Z,24.30
2018-07-09T14:05:09.264Z,24.50
2018-07-09T14:06:14.801Z,24.70
2018-07-09T14:07:20.361Z,24.80
2018-07-09T14:08:26.045Z,24.70
2018-07-09T14:09:31.613Z,24.40
2018-07-09T14:10:37.245Z,24.20
2018-07-09T14:11:42.777Z,24.10
2018-07-09T14:12:48.285Z,24.10
2018-07-09T14:13:54.356Z,24.10
2018-07-09T14:14:59.886Z,24.20
2018-07-09T14:16:05.521Z,24.50
2018-07-09T14:17:11.275Z,24.40
2018-07-09T14:18:16.918Z,24.40
2018-07-09T14:20:39.881Z,24.50
2018-07-09T14:21:45.472Z,24.50
2018-07-09T14:22:51.098Z,24.80
2018-07-09T14:23:56.647Z,24.90
2018-07-09T14:25:02.317Z,24.80
2018-07-09T14:26:08.635Z,24.80
2018-07-09T14:27:14.230Z,24.60
2018-07-09T14:28:19.783Z,24.40